createdAt,value
2017-08-29T00:02:22.659Z,78.60
2017-08-29T00:04:50.197Z,80.90
2017-08-29T00:07:17.714Z,81.40
2017-08-29T00:09:45.236Z,81.40
2017-08-29T00:12:12.971Z,82.80
2017-08-29T00:14:40.492Z,83.30
2017-08-29T00:17:07.987Z,84.20
2017-08-29T00:19:35.529Z,84.30
2017-08-29T00:22:03.031Z,84.40
2017-08-29T00:24:30.528Z,85.50
2017-08-29T00:26:58.808Z,85.30
2017-08-29T00:29:26.300Z,85.10
2017-08-29T00:31:53.849Z,86.10
2017-08-29T00:34:21.366Z,87.00
2017-08-29T00:36:48.883Z,86.80
2017-08-29T00:39:16.402Z,86.50
2017-08-29T00:41:43.928Z,87.30
2017-08-29T00:44:11.442Z,87.90
2017-08-29T00:46:38.959Z,88.40
2017-08-29T00:49:06.469Z,88.30
2017-08-29T00:51:34.120Z,88.90
2017-08-29T00:54:01.616Z,88.90
2017-08-29T00:56:29.237Z,88.90
2017-08-29T00:58:56.778Z,89.00
2017-08-29T01:01:24.290Z,89.30
2017-08-29T01:03:51.810Z,89.50
2017-08-29T01:06:19.332Z,90.10
2017-08-29T01:08:47.630Z,90.10
2017-08-29T01:11:15.147Z,90.00
2017-08-29T01:13:42.639Z,90.30
2017-08-29T01:16:10.183Z,90.30
2017-08-29T01:18:37.683Z,90.60
2017-08-29T01:21:05.212Z,90.50
2017-08-29T01:23:32.781Z,90.70
2017-08-29T01:26:00.276Z,90.80
2017-08-29T01:28:27.811Z,90.40
2017-08-29T01:30:55.312Z,90.70
2017-08-29T01:33:22.857Z,90.90
2017-08-29T01:35:50.356Z,90.80
2017-08-29T01:38:17.884Z,90.90
2017-08-29T01:40:45.398Z,91.30
2017-08-29T01:43:12.931Z,90.70
2017-08-29T01:45:41.215Z,90.80
2017-08-29T01:48:08.708Z,90.70
2017-08-29T01:50:36.235Z,90.80
2017-08-29T01:53:03.750Z,91.00
2017-08-29T01:55:31.247Z,91.00
2017-08-29T01:57:58.776Z,91.40
2017-08-29T02:00:26.298Z,91.10
2017-08-29T02:02:53.827Z,91.00
2017-08-29T02:05:21.366Z,91.20
2017-08-29T02:07:48.885Z,90.80
2017-08-29T02:10:16.403Z,91.10
2017-08-29T02:12:43.915Z,91.30
2017-08-29T02:15:11.457Z,91.70
2017-08-29T02:17:38.956Z,91.50
2017-08-29T02:20:07.251Z,91.50
2017-08-29T02:22:34.771Z,91.50
2017-08-29T02:25:02.287Z,91.50
2017-08-29T02:27:29.830Z,91.30
2017-08-29T02:29:57.346Z,91.40
2017-08-29T02:32:24.863Z,91.60
2017-08-29T02:34:52.380Z,91.60
2017-08-29T02:37:20.699Z,91.70
2017-08-29T02:39:48.240Z,91.70
2017-08-29T02:42:15.759Z,91.60
2017-08-29T02:44:43.378Z,91.80
2017-08-29T02:47:10.917Z,91.70
2017-08-29T02:49:38.493Z,92.00
2017-08-29T02:52:06.006Z,91.70
2017-08-29T02:54:33.620Z,92.00
2017-08-29T02:57:01.142Z,92.20
2017-08-29T02:59:28.687Z,92.00
2017-08-29T03:01:56.530Z,92.20
2017-08-29T03:04:24.066Z,92.30
2017-08-29T03:06:51.568Z,92.10
2017-08-29T03:09:19.101Z,92.30
2017-08-29T03:11:46.623Z,92.50
2017-08-29T03:14:14.135Z,92.60
2017-08-29T03:16:41.654Z,92.70
2017-08-29T03:19:09.182Z,92.70
2017-08-29T03:21:36.675Z,92.60
2017-08-29T03:24:04.234Z,92.50
2017-08-29T03:26:31.751Z,92.50
2017-08-29T03:29:00.008Z,92.60
2017-08-29T03:31:27.528Z,92.60
2017-08-29T03:33:55.049Z,92.70
2017-08-29T03:36:22.601Z,92.40
2017-08-29T03:38:50.101Z,92.60
2017-08-29T03:41:17.647Z,92.90
2017-08-29T03:43:45.917Z,92.60
2017-08-29T03:46:13.428Z,92.50
2017-08-29T03:48:40.964Z,92.40
2017-08-29T03:51:08.474Z,92.70
2017-08-29T03:53:36.015Z,92.70
2017-08-29T03:56:04.294Z,92.80
2017-08-29T03:58:32.598Z,92.60
2017-08-29T04:01:00.119Z,92.60
2017-08-29T04:03:27.628Z,92.40
2017-08-29T04:05:55.160Z,92.40
2017-08-29T04:08:22.660Z,92.70
2017-08-29T04:10:50.195Z,92.80
2017-08-29T04:13:17.701Z,92.60
2017-08-29T04:15:45.246Z,92.80
2017-08-29T04:18:12.747Z,92.90
2017-08-29T04:20:40.262Z,92.90
2017-08-29T04:23:07.798Z,93.20
2017-08-29T04:25:35.320Z,93.10
2017-08-29T04:28:02.858Z,93.00
2017-08-29T04:30:30.356Z,93.30
2017-08-29T04:32:57.894Z,93.60
2017-08-29T04:35:26.202Z,93.30
2017-08-29T04:37:53.728Z,93.30
2017-08-29T04:40:21.241Z,93.20
2017-08-29T04:42:48.759Z,93.00
2017-08-29T04:45:16.303Z,93.10
2017-08-29T04:47:43.897Z,93.20
2017-08-29T04:50:11.415Z,93.20
2017-08-29T04:52:39.699Z,93.30
2017-08-29T04:55:07.202Z,93.30
2017-08-29T04:57:34.737Z,93.10
2017-08-29T05:00:02.261Z,93.20
2017-08-29T05:02:29.807Z,92.90
2017-08-29T05:04:57.320Z,93.30
2017-08-29T05:07:24.857Z,93.20
2017-08-29T05:09:52.360Z,93.30
2017-08-29T05:12:19.860Z,93.00
2017-08-29T05:14:48.143Z,92.70
2017-08-29T05:17:16.450Z,92.60
2017-08-29T05:19:43.982Z,92.60
2017-08-29T05:22:12.266Z,92.50
2017-08-29T05:24:39.842Z,92.50
2017-08-29T05:27:07.344Z,92.20
2017-08-29T05:29:34.905Z,92.50
2017-08-29T05:32:02.421Z,92.30
2017-08-29T05:34:29.924Z,92.30
2017-08-29T05:36:57.465Z,92.10
2017-08-29T05:39:24.981Z,91.90
2017-08-29T05:41:52.508Z,91.60
2017-08-29T05:44:20.808Z,91.30
2017-08-29T05:46:48.307Z,91.00
2017-08-29T05:49:15.854Z,90.60
2017-08-29T05:51:43.347Z,90.50
2017-08-29T05:54:10.866Z,90.00
2017-08-29T05:56:38.404Z,89.90
2017-08-29T05:59:05.916Z,89.10
2017-08-29T06:01:33.425Z,88.80
2017-08-29T06:04:00.983Z,88.00
2017-08-29T06:06:28.506Z,87.80
2017-08-29T06:08:56.019Z,87.10
2017-08-29T06:11:23.540Z,86.90
2017-08-29T06:13:51.041Z,86.10
2017-08-29T06:16:18.557Z,85.80
2017-08-29T06:18:46.131Z,85.20
2017-08-29T06:21:13.707Z,84.70
2017-08-29T06:23:41.223Z,84.10
2017-08-29T06:26:09.531Z,82.70
2017-08-29T06:28:37.044Z,82.70
2017-08-29T06:31:04.587Z,82.20
2017-08-29T06:33:32.113Z,81.30
2017-08-29T06:35:59.662Z,79.50
2017-08-29T06:38:27.178Z,78.10
2017-08-29T06:40:54.681Z,75.40
2017-08-29T06:43:22.218Z,72.90
2017-08-29T06:45:50.484Z,67.10
2017-08-29T06:48:17.987Z,67.10
2017-08-29T06:50:45.547Z,65.60
2017-08-29T06:53:13.066Z,63.80
2017-08-29T06:55:40.615Z,60.60
2017-08-29T06:58:08.116Z,58.50
2017-08-29T07:00:35.630Z,57.30
2017-08-29T07:03:03.188Z,55.40
2017-08-29T07:05:30.711Z,55.00
2017-08-29T07:07:58.212Z,54.10
2017-08-29T07:10:25.751Z,52.70
2017-08-29T07:12:53.248Z,52.00
2017-08-29T07:15:20.785Z,49.20
2017-08-29T07:17:49.054Z,46.90
2017-08-29T07:20:16.574Z,46.80
2017-08-29T07:22:44.412Z,45.80
2017-08-29T07:25:11.911Z,45.20
2017-08-29T07:27:39.412Z,44.30
2017-08-29T07:30:06.951Z,45.00
2017-08-29T07:32:34.475Z,43.60
2017-08-29T07:35:02.003Z,43.20
2017-08-29T07:37:29.532Z,43.20
2017-08-29T07:39:57.828Z,40.40
2017-08-29T07:42:25.335Z,40.40
2017-08-29T07:44:52.858Z,41.00
2017-08-29T07:47:20.394Z,41.30
2017-08-29T07:49:47.899Z,40.70
2017-08-29T07:52:15.447Z,39.30
2017-08-29T07:54:42.967Z,40.90
2017-08-29T07:57:10.490Z,40.20
2017-08-29T07:59:38.020Z,39.30
2017-08-29T08:02:05.542Z,38.00
2017-08-29T08:04:33.062Z,36.90
2017-08-29T08:07:00.798Z,37.70
2017-08-29T08:09:28.300Z,37.00
2017-08-29T08:11:55.817Z,37.30
2017-08-29T08:14:23.358Z,35.60
2017-08-29T08:16:50.868Z,35.60
2017-08-29T08:19:18.368Z,35.80
2017-08-29T08:21:45.947Z,35.00
2017-08-29T08:24:13.509Z,35.40
2017-08-29T08:26:41.022Z,35.10
2017-08-29T08:29:08.535Z,35.90
2017-08-29T08:31:36.035Z,35.40
2017-08-29T08:34:03.579Z,35.60
2017-08-29T08:36:31.090Z,35.80
2017-08-29T08:38:58.626Z,34.70
2017-08-29T08:41:26.131Z,35.40
2017-08-29T08:43:53.665Z,34.70
2017-08-29T08:46:21.159Z,36.00
2017-08-29T08:48:48.685Z,34.30
2017-08-29T08:51:16.184Z,34.10
2017-08-29T08:53:43.693Z,35.30
2017-08-29T08:56:11.216Z,35.30
2017-08-29T08:58:38.717Z,34.20
2017-08-29T09:01:06.256Z,33.20
2017-08-29T09:03:33.760Z,31.90
2017-08-29T09:06:01.275Z,31.70
2017-08-29T09:08:28.801Z,31.80
2017-08-29T09:10:56.337Z,30.00
2017-08-29T09:13:23.854Z,30.80
2017-08-29T09:15:51.366Z,30.30
2017-08-29T09:18:18.888Z,30.50
2017-08-29T09:20:46.394Z,29.30
2017-08-29T09:23:14.096Z,29.90
2017-08-29T09:25:41.710Z,29.50
2017-08-29T09:28:09.232Z,29.10
2017-08-29T09:30:36.728Z,28.40
2017-08-29T09:33:04.275Z,28.60
2017-08-29T09:35:31.819Z,29.60
2017-08-29T09:37:59.335Z,29.30
2017-08-29T09:40:26.878Z,28.80
2017-08-29T09:42:55.161Z,27.80
2017-08-29T09:45:22.701Z,27.50
2017-08-29T09:47:50.204Z,28.00
2017-08-29T09:50:17.714Z,27.40
2017-08-29T09:52:45.236Z,28.20
2017-08-29T09:55:12.788Z,29.40
2017-08-29T09:57:40.329Z,27.30
2017-08-29T10:00:07.833Z,27.60
2017-08-29T10:02:35.382Z,28.50
2017-08-29T10:05:02.906Z,28.70
2017-08-29T10:07:30.421Z,29.00
2017-08-29T10:09:57.956Z,26.80
2017-08-29T10:12:25.569Z,27.10
2017-08-29T10:14:53.133Z,26.80
2017-08-29T10:17:20.652Z,27.00
2017-08-29T10:19:48.175Z,26.30
2017-08-29T10:22:15.699Z,26.50
2017-08-29T10:24:43.213Z,26.50
2017-08-29T10:27:10.753Z,26.20
2017-08-29T10:29:38.309Z,25.90
2017-08-29T10:32:05.830Z,26.00
2017-08-29T10:34:34.113Z,23.80
2017-08-29T10:37:01.705Z,23.80
2017-08-29T10:39:29.235Z,24.60
2017-08-29T10:41:56.825Z,25.10
2017-08-29T10:44:24.343Z,25.60
2017-08-29T10:46:51.866Z,26.00
2017-08-29T10:49:19.369Z,26.90
2017-08-29T10:51:46.895Z,24.80
2017-08-29T10:54:14.416Z,24.50
2017-08-29T10:56:41.979Z,24.10
2017-08-29T10:59:09.533Z,23.30
2017-08-29T11:01:37.055Z,22.20
2017-08-29T11:04:04.594Z,22.80
2017-08-29T11:06:32.114Z,23.00
2017-08-29T11:08:59.644Z,22.50
2017-08-29T11:11:27.144Z,22.30
2017-08-29T11:13:54.662Z,21.40
2017-08-29T11:16:22.189Z,22.40
2017-08-29T11:18:49.687Z,23.00
2017-08-29T11:21:17.547Z,25.60
2017-08-29T11:23:45.048Z,26.10
2017-08-29T11:26:12.548Z,24.80
2017-08-29T11:28:40.086Z,24.90
2017-08-29T11:31:07.605Z,22.60
2017-08-29T11:33:35.180Z,22.50
2017-08-29T11:36:02.687Z,22.50
2017-08-29T11:38:30.201Z,21.70
2017-08-29T11:40:57.742Z,21.80
2017-08-29T11:43:25.240Z,19.50
2017-08-29T11:45:52.774Z,20.20
2017-08-29T11:48:20.276Z,20.20
2017-08-29T11:50:48.687Z,19.90
2017-08-29T11:53:16.185Z,19.80
2017-08-29T11:55:43.720Z,19.70
2017-08-29T11:58:11.220Z,20.50
2017-08-29T12:00:38.720Z,24.10
2017-08-29T12:03:06.247Z,26.30
2017-08-29T12:05:34.520Z,23.90
2017-08-29T12:08:02.813Z,23.00
2017-08-29T12:10:30.338Z,23.00
2017-08-29T12:12:57.865Z,23.60
2017-08-29T12:15:25.402Z,24.90
2017-08-29T12:17:52.903Z,24.20
2017-08-29T12:20:20.606Z,22.40
2017-08-29T12:22:48.130Z,21.50
2017-08-29T12:25:15.646Z,20.30
2017-08-29T12:27:43.201Z,20.30
2017-08-29T12:30:10.695Z,18.70
2017-08-29T12:32:38.235Z,18.70
2017-08-29T12:35:05.758Z,17.90
2017-08-29T12:37:33.318Z,17.90
2017-08-29T12:40:00.830Z,18.40
2017-08-29T12:42:28.455Z,18.90
2017-08-29T12:44:56.001Z,18.50
2017-08-29T12:47:23.573Z,18.10
2017-08-29T12:49:51.094Z,20.50
2017-08-29T12:52:18.895Z,21.30
2017-08-29T12:54:46.400Z,20.90
2017-08-29T12:57:13.913Z,18.90
2017-08-29T12:59:41.441Z,18.80
2017-08-29T13:02:09.699Z,18.40
2017-08-29T13:04:37.234Z,18.30
2017-08-29T13:07:04.750Z,19.00
2017-08-29T13:09:32.271Z,20.20
2017-08-29T13:11:59.773Z,19.80
2017-08-29T13:14:27.286Z,19.60
2017-08-29T13:16:54.799Z,18.60
2017-08-29T13:19:22.454Z,17.90
2017-08-29T13:21:50.763Z,17.20
2017-08-29T13:24:18.264Z,17.30
2017-08-29T13:26:46.571Z,16.50
2017-08-29T13:29:14.063Z,16.50
2017-08-29T13:31:41.574Z,17.00
2017-08-29T13:34:09.095Z,17.70
2017-08-29T13:36:36.611Z,18.30
2017-08-29T13:39:04.149Z,16.80
2017-08-29T13:41:31.666Z,17.60
2017-08-29T13:43:59.178Z,17.70
2017-08-29T13:46:26.712Z,18.20
2017-08-29T13:48:54.216Z,17.10
2017-08-29T13:51:21.734Z,17.50
2017-08-29T13:53:49.266Z,18.70
2017-08-29T13:56:17.543Z,20.10
2017-08-29T13:58:45.082Z,20.00
2017-08-29T14:01:12.594Z,22.20
2017-08-29T14:03:40.116Z,24.50
2017-08-29T14:06:08.386Z,24.00
2017-08-29T14:08:35.912Z,23.90
2017-08-29T14:11:03.412Z,22.50
2017-08-29T14:13:30.907Z,21.60
2017-08-29T14:15:58.469Z,22.20
2017-08-29T14:18:26.234Z,23.40
2017-08-29T14:20:53.752Z,22.60
2017-08-29T14:23:22.058Z,22.40
2017-08-29T14:25:49.772Z,22.50
2017-08-29T14:28:17.290Z,22.00
2017-08-29T14:30:44.821Z,21.90
2017-08-29T14:33:12.316Z,21.10
2017-08-29T14:35:39.826Z,21.70
2017-08-29T14:38:07.372Z,22.10
2017-08-29T14:40:34.891Z,23.00
2017-08-29T14:45:43.155Z,23.40
2017-08-29T14:48:22.429Z,23.70
2017-08-29T14:50:49.956Z,23.20
2017-08-29T14:53:17.559Z,23.80
2017-08-29T14:55:45.068Z,23.70
2017-08-29T14:58:12.598Z,23.80
2017-08-29T15:00:40.135Z,23.30
2017-08-29T15:03:07.637Z,22.40
2017-08-29T15:05:35.168Z,22.50
2017-08-29T15:08:02.814Z,23.10
2017-08-29T15:10:30.326Z,22.70
2017-08-29T15:12:57.879Z,21.60
2017-08-29T15:15:25.384Z,23.20
2017-08-29T15:17:52.902Z,23.90
2017-08-29T15:20:21.340Z,25.20
2017-08-29T15:22:48.876Z,24.80
2017-08-29T15:25:16.399Z,23.50
2017-08-29T15:27:43.947Z,22.80
2017-08-29T15:30:11.475Z,23.90
2017-08-29T15:32:39.758Z,25.60
2017-08-29T15:35:13.798Z,26.60
2017-08-29T15:37:41.300Z,26.60
2017-08-29T15:40:08.810Z,27.80
2017-08-29T15:42:36.358Z,27.30
2017-08-29T15:45:03.936Z,27.30
2017-08-29T15:47:31.436Z,28.00
2017-08-29T15:49:58.973Z,29.00
2017-08-29T15:52:26.510Z,30.00
2017-08-29T15:54:54.012Z,30.30
2017-08-29T15:57:21.630Z,29.80
2017-08-29T15:59:49.144Z,30.70
2017-08-29T16:02:16.746Z,31.10
2017-08-29T16:04:44.286Z,32.40
2017-08-29T16:07:11.789Z,32.20
2017-08-29T16:09:39.293Z,34.20
2017-08-29T16:12:07.585Z,33.30
2017-08-29T16:14:35.107Z,33.30
2017-08-29T16:17:02.627Z,34.00
2017-08-29T16:19:30.190Z,35.80
2017-08-29T16:21:57.693Z,34.30
2017-08-29T16:24:25.208Z,33.70
2017-08-29T16:26:52.768Z,34.70
2017-08-29T16:29:20.273Z,33.70
2017-08-29T16:31:47.788Z,35.80
2017-08-29T16:34:15.316Z,35.60
2017-08-29T16:36:42.845Z,35.20
2017-08-29T16:39:11.140Z,35.80
2017-08-29T16:41:38.693Z,35.80
2017-08-29T16:44:06.282Z,37.20
2017-08-29T16:46:33.803Z,37.20
2017-08-29T16:49:01.345Z,37.10
2017-08-29T16:51:28.863Z,36.90
2017-08-29T16:53:56.370Z,37.00
2017-08-29T16:56:23.928Z,37.70
2017-08-29T16:58:51.437Z,38.70
2017-08-29T17:01:18.945Z,38.80
2017-08-29T17:03:47.288Z,39.30
2017-08-29T17:06:14.795Z,39.30
2017-08-29T17:08:43.083Z,39.30
2017-08-29T17:11:10.625Z,39.30
2017-08-29T17:13:38.216Z,39.50
2017-08-29T17:16:05.767Z,40.00
2017-08-29T17:18:33.338Z,39.60
2017-08-29T17:21:00.861Z,39.50
2017-08-29T17:23:28.364Z,39.40
2017-08-29T17:25:55.893Z,40.00
2017-08-29T17:28:23.434Z,40.70
2017-08-29T17:30:51.697Z,40.80
2017-08-29T17:33:19.223Z,40.80
2017-08-29T17:35:46.742Z,42.50
2017-08-29T17:38:14.268Z,42.20
2017-08-29T17:40:41.792Z,43.50
2017-08-29T17:43:09.296Z,43.70
2017-08-29T17:45:36.839Z,45.20
2017-08-29T17:48:04.358Z,45.80
2017-08-29T17:50:31.874Z,46.20
2017-08-29T17:52:59.404Z,46.60
2017-08-29T17:55:26.923Z,47.30
2017-08-29T17:57:54.452Z,47.80
2017-08-29T18:00:21.951Z,48.10
2017-08-29T18:02:49.466Z,48.80
2017-08-29T18:05:17.062Z,49.30
2017-08-29T18:07:44.574Z,49.50
2017-08-29T18:10:12.178Z,49.70
2017-08-29T18:12:39.699Z,50.30
2017-08-29T18:15:07.203Z,51.00
2017-08-29T18:17:35.063Z,51.60
2017-08-29T18:20:02.564Z,51.90
2017-08-29T18:22:30.066Z,52.30
2017-08-29T18:24:57.606Z,52.70
2017-08-29T18:27:25.096Z,52.90
2017-08-29T18:29:52.588Z,53.60
2017-08-29T18:32:20.131Z,54.10
2017-08-29T18:34:47.632Z,54.50
2017-08-29T18:37:15.171Z,55.10
2017-08-29T18:39:42.684Z,55.40
2017-08-29T18:42:10.219Z,55.90
2017-08-29T18:44:37.736Z,56.40
2017-08-29T18:47:05.236Z,56.60
2017-08-29T18:49:32.780Z,57.00
2017-08-29T18:52:00.302Z,57.20
2017-08-29T18:54:27.827Z,57.40
2017-08-29T18:56:55.378Z,57.50
2017-08-29T18:59:22.903Z,57.80
2017-08-29T19:01:50.426Z,58.10
2017-08-29T19:04:17.963Z,58.30
2017-08-29T19:06:45.467Z,58.50
2017-08-29T19:09:12.992Z,58.60
2017-08-29T19:11:40.492Z,58.60
2017-08-29T19:14:08.038Z,58.70
2017-08-29T19:16:35.558Z,59.10
2017-08-29T19:19:03.178Z,59.10
2017-08-29T19:21:31.452Z,59.80
2017-08-29T19:23:59.014Z,59.80
2017-08-29T19:26:26.511Z,60.00
2017-08-29T19:28:54.027Z,60.30
2017-08-29T19:31:21.570Z,60.60
2017-08-29T19:33:49.073Z,60.50
2017-08-29T19:36:16.576Z,60.60
2017-08-29T19:38:44.119Z,61.00
2017-08-29T19:41:11.620Z,61.10
2017-08-29T19:43:39.174Z,61.20
2017-08-29T19:46:07.458Z,61.10
2017-08-29T19:48:34.980Z,61.70
2017-08-29T19:51:02.504Z,61.10
2017-08-29T19:53:30.022Z,60.90
2017-08-29T19:55:58.337Z,61.00
2017-08-29T19:58:25.850Z,60.90
2017-08-29T20:00:53.351Z,61.40
2017-08-29T20:03:20.876Z,61.70
2017-08-29T20:05:49.167Z,62.60
2017-08-29T20:08:16.699Z,62.50
2017-08-29T20:10:44.225Z,62.60
2017-08-29T20:13:11.724Z,62.60
2017-08-29T20:15:40.024Z,62.80
2017-08-29T20:18:07.527Z,62.80
2017-08-29T20:20:35.028Z,63.50
2017-08-29T20:23:02.555Z,64.40
2017-08-29T20:25:30.070Z,65.20
2017-08-29T20:27:57.600Z,65.30
2017-08-29T20:30:25.932Z,65.70
2017-08-29T20:32:53.435Z,67.40
2017-08-29T20:35:20.986Z,67.50
2017-08-29T20:37:48.501Z,67.20
2017-08-29T20:40:16.022Z,67.60
2017-08-29T20:42:43.594Z,68.40
2017-08-29T20:45:11.115Z,69.00
2017-08-29T20:47:39.394Z,70.10
2017-08-29T20:50:06.933Z,70.10
2017-08-29T20:52:34.444Z,70.00
2017-08-29T20:55:01.943Z,70.60
2017-08-29T20:57:29.472Z,70.90
2017-08-29T20:59:57.023Z,70.90
2017-08-29T21:02:24.591Z,71.00
2017-08-29T21:04:52.118Z,71.30
2017-08-29T21:07:19.628Z,71.60
2017-08-29T21:09:47.148Z,72.10
2017-08-29T21:12:14.717Z,72.50
2017-08-29T21:14:42.242Z,73.10
2017-08-29T21:17:09.743Z,73.20
2017-08-29T21:19:37.290Z,74.30
2017-08-29T21:22:04.789Z,74.50
2017-08-29T21:24:32.306Z,74.30
2017-08-29T21:26:59.835Z,75.70
2017-08-29T21:29:27.354Z,76.00
2017-08-29T21:31:54.865Z,75.90
2017-08-29T21:34:22.414Z,75.20
2017-08-29T21:36:49.939Z,75.10
2017-08-29T21:39:17.463Z,75.00
2017-08-29T21:41:44.991Z,75.00
2017-08-29T21:44:12.506Z,75.20
2017-08-29T21:46:40.022Z,75.30
2017-08-29T21:49:07.571Z,75.60
2017-08-29T21:51:35.096Z,75.60
2017-08-29T21:54:02.624Z,76.10
2017-08-29T21:56:30.159Z,77.30
2017-08-29T21:58:57.664Z,76.40
2017-08-29T22:01:25.933Z,77.30
2017-08-29T22:03:53.565Z,77.00
2017-08-29T22:06:21.092Z,77.10
2017-08-29T22:08:49.371Z,76.40
2017-08-29T22:11:16.906Z,76.30
2017-08-29T22:13:44.408Z,75.30
2017-08-29T22:16:11.926Z,74.30
2017-08-29T22:18:39.554Z,73.90
2017-08-29T22:21:07.070Z,73.60
2017-08-29T22:23:34.591Z,72.80
2017-08-29T22:26:02.631Z,73.20
2017-08-29T22:28:30.154Z,72.60
2017-08-29T22:30:57.655Z,72.60
2017-08-29T22:33:25.194Z,72.80
2017-08-29T22:35:52.706Z,72.80
2017-08-29T22:38:20.225Z,72.40
2017-08-29T22:40:47.763Z,72.10
2017-08-29T22:43:16.027Z,71.30
2017-08-29T22:45:43.796Z,71.10
2017-08-29T22:48:11.297Z,70.00
2017-08-29T22:50:38.802Z,69.40
2017-08-29T22:53:06.332Z,69.00
2017-08-29T22:55:33.871Z,68.20
2017-08-29T22:58:01.372Z,67.40
2017-08-29T23:00:29.673Z,67.00
2017-08-29T23:02:57.175Z,67.00
2017-08-29T23:05:24.686Z,66.50
2017-08-29T23:07:52.249Z,66.00
2017-08-29T23:10:19.770Z,65.90
2017-08-29T23:12:47.290Z,65.70
2017-08-29T23:15:14.842Z,65.70
2017-08-29T23:17:42.341Z,65.30
2017-08-29T23:20:09.858Z,65.20
2017-08-29T23:22:37.406Z,64.50
2017-08-29T23:25:04.929Z,64.40
2017-08-29T23:27:33.214Z,63.00
2017-08-29T23:30:01.508Z,62.40
2017-08-29T23:32:29.028Z,62.40
2017-08-29T23:34:56.546Z,62.10
2017-08-29T23:37:24.081Z,62.00
2017-08-29T23:39:51.580Z,61.60
2017-08-29T23:42:19.098Z,61.40
2017-08-29T23:44:46.619Z,61.40
2017-08-29T23:47:14.117Z,61.20
2017-08-29T23:49:41.620Z,60.30
2017-08-29T23:52:09.169Z,61.10
2017-08-29T23:54:36.679Z,60.50
2017-08-29T23:57:04.176Z,60.60
2017-08-29T23:59:31.722Z,60.50
